Time;durP1;ratioP1;P1;durP2;ratioP2;P2;SDS_P1;SDS_P2;PMS_P1;PMS_P2;Temp;Humidity;BMP_temperature;BMP_pressure;BME280_temperature;BME280_humidity;BME280_pressure;Samples;Min_cycle;Max_cycle;Signal;HPM_P1;HPM_P2
2021/11/17 02:26:01;;;;;;;27.65;11.68;;;5.20;99.90;;;;;;5073575;28;20052;-80
2021/11/17 02:28:36;;;;;;;15.38;7.82;;;5.20;99.90;;;;;;5053132;28;20041;-81
2021/11/17 02:31:14;;;;;;;22.83;9.13;;;5.30;99.90;;;;;;5080954;28;20373;-80
2021/11/17 02:33:48;;;;;;;14.82;4.95;;;5.30;99.90;;;;;;5070043;28;20041;-80
2021/11/17 02:36:23;;;;;;;8.40;4.97;;;5.30;99.90;;;;;;5073201;28;20052;-82
2021/11/17 02:38:52;;;;;;;11.18;6.80;;;5.80;99.90;;;;;;5084800;28;20533;-80
2021/11/17 02:41:20;;;;;;;17.02;6.63;;;5.30;99.90;;;;;;5085140;28;20039;-81
2021/11/17 02:43:59;;;;;;;16.42;7.88;;;5.30;99.90;;;;;;5071877;28;20115;-81
2021/11/17 02:46:43;;;;;;;20.77;6.93;;;5.40;99.90;;;;;;5073853;28;20055;-81
2021/11/17 02:49:31;;;;;;;8.65;4.93;;;5.70;99.90;;;;;;5057782;28;20071;-81
2021/11/17 02:52:12;;;;;;;10.20;6.10;;;5.50;99.90;;;;;;5088846;28;20048;-81
2021/11/17 02:55:00;;;;;;;10.30;4.35;;;5.40;99.90;;;;;;5092791;28;20442;-80
2021/11/17 02:57:52;;;;;;;18.80;6.07;;;5.40;99.90;;;;;;5077733;28;20040;-80
2021/11/17 03:00:18;;;;;;;21.58;9.77;;;5.40;99.90;;;;;;5087886;28;20078;-79
2021/11/17 03:03:05;;;;;;;19.42;6.03;;;5.30;99.90;;;;;;5074550;28;20504;-79
2021/11/17 03:05:36;;;;;;;13.25;6.07;;;5.40;99.90;;;;;;5078900;28;20446;-79
2021/11/17 03:08:40;;;;;;;11.23;6.05;;;5.50;99.90;;;;;;5084165;28;20036;-80
2021/11/17 03:11:30;;;;;;;19.88;7.75;;;5.50;99.90;;;;;;5057797;28;20036;-79
2021/11/17 03:14:47;;;;;;;16.80;8.10;;;5.50;99.90;;;;;;5061951;28;20043;-79
2021/11/17 03:17:28;;;;;;;13.73;4.45;;;5.50;99.90;;;;;;5054200;28;20055;-79
2021/11/17 03:20:29;;;;;;;15.00;5.75;;;5.50;99.90;;;;;;5076585;28;20500;-80
2021/11/17 03:23:23;;;;;;;18.48;8.38;;;5.50;99.90;;;;;;5071531;28;20072;-79
2021/11/17 03:25:55;;;;;;;6.65;4.03;;;5.60;99.90;;;;;;5089314;28;20055;-80
2021/11/17 03:28:37;;;;;;;9.50;7.72;;;5.60;99.90;;;;;;5086942;28;20044;-79
2021/11/17 03:31:40;;;;;;;21.88;6.20;;;6.20;99.90;;;;;;5082363;28;20516;-78
2021/11/17 03:34:53;;;;;;;9.02;6.38;;;5.70;99.90;;;;;;5056581;28;20389;-79
2021/11/17 03:37:27;;;;;;;5.18;4.20;;;5.70;99.90;;;;;;5042488;28;20178;-77
2021/11/17 03:40:28;;;;;;;9.45;5.38;;;5.70;99.90;;;;;;5058888;28;20064;-79
2021/11/17 03:43:08;;;;;;;12.15;8.02;;;5.70;99.90;;;;;;5056889;28;20091;-79
2021/11/17 03:45:54;;;;;;;8.77;6.28;;;5.70;99.90;;;;;;5072460;28;20048;-79
2021/11/17 03:48:35;;;;;;;8.68;3.75;;;5.70;99.90;;;;;;5072428;28;20051;-78
2021/11/17 03:51:19;;;;;;;11.82;5.60;;;5.70;99.90;;;;;;5073490;28;20060;-78
2021/11/17 03:54:14;;;;;;;8.65;5.13;;;5.80;99.90;;;;;;5088726;28;20045;-78
2021/11/17 03:56:46;;;;;;;17.35;8.93;;;5.80;99.90;;;;;;5069730;28;20127;-78
2021/11/17 03:59:33;;;;;;;11.73;6.00;;;5.80;99.90;;;;;;5068670;28;20044;-80
2021/11/17 04:02:14;;;;;;;17.60;7.75;;;5.90;99.90;;;;;;5089563;28;20083;-79
2021/11/17 04:04:49;;;;;;;13.48;6.47;;;5.90;99.90;;;;;;5055400;28;20044;-80
2021/11/17 04:07:27;;;;;;;14.02;6.25;;;5.90;99.90;;;;;;5075675;28;20051;-80
2021/11/17 04:10:34;;;;;;;13.50;6.65;;;5.90;99.90;;;;;;5055792;28;20040;-80
2021/11/17 04:13:41;;;;;;;10.75;6.65;;;5.90;99.90;;;;;;5055309;28;20570;-81
2021/11/17 04:16:37;;;;;;;14.75;6.95;;;5.90;99.90;;;;;;5043292;28;20453;-81
2021/11/17 04:19:21;;;;;;;16.55;6.88;;;5.90;99.90;;;;;;5071130;28;20059;-81
2021/11/17 04:22:16;;;;;;;8.23;5.68;;;5.90;99.90;;;;;;5072818;28;20040;-82
2021/11/17 04:24:41;;;;;;;16.92;8.63;;;6.00;99.90;;;;;;5079342;28;20439;-80
2021/11/17 04:27:25;;;;;;;13.93;7.57;;;5.90;99.90;;;;;;5078866;28;20123;-79
2021/11/17 04:29:57;;;;;;;10.90;4.75;;;6.00;99.90;;;;;;5059805;28;20032;-80
2021/11/17 04:32:42;;;;;;;5.68;4.90;;;6.00;99.90;;;;;;5073345;28;20048;-80
2021/11/17 04:35:45;;;;;;;12.45;6.38;;;5.90;99.90;;;;;;5070652;28;20051;-79
2021/11/17 04:38:51;;;;;;;7.28;5.07;;;5.90;99.90;;;;;;5055095;28;20040;-77
2021/11/17 04:41:26;;;;;;;18.77;7.80;;;5.90;99.90;;;;;;5072164;28;20067;-78
2021/11/17 04:44:03;;;;;;;9.75;5.38;;;5.90;99.90;;;;;;5077375;28;20048;-78
2021/11/17 04:46:33;;;;;;;10.63;4.57;;;5.90;99.90;;;;;;5078645;28;20040;-77
2021/11/17 04:49:14;;;;;;;10.27;5.75;;;5.90;99.90;;;;;;5075953;28;20068;-78
2021/11/17 04:51:46;;;;;;;10.85;7.20;;;5.90;99.90;;;;;;5064604;28;20053;-78
2021/11/17 04:54:42;;;;;;;11.00;4.63;;;6.00;99.90;;;;;;5084221;28;20141;-79
2021/11/17 04:57:11;;;;;;;13.93;4.90;;;6.00;99.90;;;;;;5062304;28;20086;-80
2021/11/17 05:00:08;;;;;;;10.60;5.40;;;6.00;99.90;;;;;;5077774;28;20536;-81
2021/11/17 05:02:37;;;;;;;11.75;7.90;;;6.00;99.90;;;;;;5090426;28;20130;-80
2021/11/17 05:05:22;;;;;;;12.45;4.57;;;6.00;99.90;;;;;;5076651;28;20402;-81
2021/11/17 05:07:59;;;;;;;18.25;7.22;;;6.10;99.90;;;;;;5067433;28;20430;-80
2021/11/17 05:10:59;;;;;;;9.27;5.65;;;6.10;99.90;;;;;;5082233;28;20139;-80
2021/11/17 05:13:47;;;;;;;9.77;5.95;;;6.10;99.90;;;;;;5076508;28;20040;-80
2021/11/17 05:16:32;;;;;;;;;;;6.10;99.90;;;;;;5073648;28;20430;-80
2021/11/17 05:19:21;;;;;;;9.80;6.10;;;6.20;99.90;;;;;;5085239;28;20032;-80
2021/11/17 05:21:47;;;;;;;12.13;6.28;;;6.30;99.90;;;;;;5082871;28;20040;-81
2021/11/17 05:24:31;;;;;;;11.85;5.68;;;6.20;99.90;;;;;;5090979;28;20062;-79
2021/11/17 05:27:22;;;;;;;7.72;6.13;;;6.20;99.90;;;;;;5062580;28;20446;-80
2021/11/17 05:29:57;;;;;;;16.58;7.15;;;6.20;99.90;;;;;;5056773;28;20593;-81
2021/11/17 05:32:32;;;;;;;10.23;4.88;;;6.20;99.90;;;;;;5104971;28;20066;-81
2021/11/17 05:35:20;;;;;;;19.50;8.68;;;6.20;99.90;;;;;;5094722;28;20123;-81
2021/11/17 05:38:07;;;;;;;8.85;5.72;;;6.20;99.90;;;;;;5053473;28;20044;-81
2021/11/17 05:40:40;;;;;;;16.63;7.63;;;6.30;99.90;;;;;;5074546;28;20056;-81
2021/11/17 05:43:23;;;;;;;8.77;4.80;;;6.40;99.90;;;;;;5064986;28;20048;-81
2021/11/17 05:45:57;;;;;;;17.73;7.28;;;6.30;99.90;;;;;;5073347;28;20067;-81
2021/11/17 05:48:44;;;;;;;21.88;10.13;;;6.30;99.90;;;;;;5078158;28;20036;-79
2021/11/17 05:51:28;;;;;;;23.35;9.68;;;6.40;99.90;;;;;;5083171;28;20506;-80
2021/11/17 05:54:09;;;;;;;17.90;8.40;;;6.40;99.90;;;;;;5076978;28;20067;-81
2021/11/17 05:56:44;;;;;;;22.45;6.45;;;6.40;99.90;;;;;;5071605;28;20036;-81
2021/11/17 05:59:31;;;;;;;26.05;5.93;;;6.40;99.90;;;;;;5070830;28;20521;-81
2021/11/17 06:02:12;;;;;;;;;;;6.40;99.90;;;;;;5070592;28;20051;-80
2021/11/17 06:04:37;;;;;;;21.90;10.80;;;6.40;99.90;;;;;;5053296;28;19920;-80
2021/11/17 06:07:03;;;;;;;23.35;10.82;;;6.40;99.90;;;;;;5069958;28;20051;-81
2021/11/17 06:09:28;;;;;;;11.57;7.32;;;6.40;99.90;;;;;;5070593;28;20053;-80
2021/11/17 06:11:59;;;;;;;11.15;7.10;;;6.50;99.90;;;;;;5070233;28;20101;-81
2021/11/17 06:14:31;;;;;;;17.98;8.73;;;6.50;99.90;;;;;;5073368;28;20040;-80
2021/11/17 06:17:04;;;;;;;28.25;9.70;;;6.50;99.90;;;;;;5075960;28;20040;-80
2021/11/17 06:19:34;;;;;;;16.65;8.30;;;6.50;99.90;;;;;;5090839;28;20051;-80
2021/11/17 06:22:01;;;;;;;14.50;6.55;;;6.50;99.90;;;;;;5090012;28;20050;-81
2021/11/17 06:24:28;;;;;;;20.33;10.30;;;6.60;99.90;;;;;;5088620;28;20093;-80
2021/11/17 06:26:54;;;;;;;18.83;10.25;;;6.60;99.90;;;;;;5075114;28;20055;-80
2021/11/17 06:29:22;;;;;;;12.57;7.18;;;6.60;99.90;;;;;;5073931;28;20494;-81
2021/11/17 06:31:49;;;;;;;15.25;9.30;;;6.60;99.90;;;;;;5096882;28;20489;-81
2021/11/17 06:34:22;;;;;;;16.80;10.10;;;6.90;99.90;;;;;;5098059;28;20102;-81
2021/11/17 06:36:48;;;;;;;30.73;12.60;;;6.60;99.90;;;;;;5056634;28;20045;-80
2021/11/17 06:39:14;;;;;;;10.10;7.75;;;6.60;99.90;;;;;;5077762;28;20036;-81
2021/11/17 06:41:40;;;;;;;12.35;8.60;;;6.60;99.90;;;;;;5057075;28;20083;-80
2021/11/17 06:44:05;;;;;;;14.55;9.23;;;6.70;99.90;;;;;;5060467;28;20075;-78
2021/11/17 06:46:31;;;;;;;12.75;7.20;;;6.70;99.90;;;;;;5085858;28;20093;-79
2021/11/17 06:48:57;;;;;;;20.38;8.10;;;6.70;99.90;;;;;;5075513;28;20056;-79
2021/11/17 06:53:49;;;;;;;18.80;7.05;;;6.80;99.90;;;;;;5032277;28;20509;-81
2021/11/17 06:56:17;;;;;;;20.02;8.93;;;6.80;99.90;;;;;;5031439;28;20045;-84
2021/11/17 06:58:42;;;;;;;8.45;7.55;;;6.80;99.90;;;;;;5033632;28;20533;-83
2021/11/17 07:01:08;;;;;;;19.75;8.50;;;6.90;99.90;;;;;;5035094;28;20080;-82
2021/11/17 07:03:34;;;;;;;34.33;8.90;;;6.90;99.90;;;;;;5033109;28;20475;-81
2021/11/17 07:06:00;;;;;;;19.15;9.80;;;6.90;99.90;;;;;;5018933;28;20049;-84
2021/11/17 07:08:25;;;;;;;21.67;8.25;;;7.00;99.90;;;;;;5033272;28;20487;-82
2021/11/17 07:10:51;;;;;;;11.23;8.23;;;7.00;99.90;;;;;;5032986;28;20045;-85
2021/11/17 07:13:17;;;;;;;13.70;7.55;;;7.00;99.90;;;;;;5001323;28;20050;-82
2021/11/17 07:15:43;;;;;;;27.38;11.15;;;7.00;99.90;;;;;;5033120;28;20084;-84
2021/11/17 07:18:10;;;;;;;12.13;8.80;;;7.00;99.90;;;;;;5020828;28;20482;-84
2021/11/17 07:20:38;;;;;;;15.95;7.45;;;7.10;99.90;;;;;;5022169;28;20383;-81
2021/11/17 07:23:06;;;;;;;10.77;7.35;;;7.10;99.90;;;;;;5012564;28;20053;-82
2021/11/17 07:25:32;;;;;;;25.20;9.63;;;7.10;99.90;;;;;;5033948;28;20667;-85
2021/11/17 07:28:00;;;;;;;;;;;7.10;99.90;;;;;;5015468;28;20053;-83
2021/11/17 07:30:39;;;;;;;15.40;7.88;;;7.10;99.90;;;;;;5034879;28;20066;-85
2021/11/17 07:33:09;;;;;;;18.85;9.60;;;7.10;99.90;;;;;;5033274;28;20046;-84
2021/11/17 07:35:40;;;;;;;11.57;7.25;;;8.50;99.90;;;;;;5031957;28;20179;-81
2021/11/17 07:38:08;;;;;;;18.08;9.50;;;7.30;99.90;;;;;;5013394;28;20045;-82
2021/11/17 07:40:38;;;;;;;19.20;8.95;;;7.30;99.90;;;;;;5031512;28;20055;-81
2021/11/17 07:43:09;;;;;;;16.40;7.35;;;7.30;99.90;;;;;;5002428;28;20053;-81
2021/11/17 07:45:37;;;;;;;30.55;11.98;;;7.90;99.90;;;;;;4989730;28;20639;-79
2021/11/17 07:48:04;;;;;;;17.88;10.65;;;7.50;99.90;;;;;;5015446;28;20052;-81
2021/11/17 07:50:30;;;;;;;13.70;7.30;;;7.40;99.90;;;;;;5016008;28;20076;-82
2021/11/17 07:52:57;;;;;;;28.70;11.15;;;7.40;99.90;;;;;;4997850;28;20060;-83
2021/11/17 07:55:24;;;;;;;34.53;11.45;;;;;;;;;;5016521;28;20115;-83
2021/11/17 07:57:52;;;;;;;16.02;10.30;;;;;;;;;;5018098;28;20048;-83
2021/11/17 08:00:27;;;;;;;16.38;10.25;;;7.60;99.90;;;;;;5016048;28;20060;-79
2021/11/17 08:02:54;;;;;;;19.77;9.13;;;;;;;;;;5010770;28;20033;-80
2021/11/17 08:05:23;;;;;;;30.42;13.40;;;7.80;99.90;;;;;;5030979;28;20041;-80
2021/11/17 08:07:49;;;;;;;13.75;8.27;;;7.70;99.90;;;;;;5029812;28;20112;-81
2021/11/17 08:10:26;;;;;;;22.08;9.52;;;7.80;99.90;;;;;;5014999;28;20087;-82
2021/11/17 08:12:52;;;;;;;24.30;11.85;;;7.90;99.90;;;;;;5018020;28;20038;-79
2021/11/17 08:15:20;;;;;;;43.97;14.27;;;8.00;99.90;;;;;;5015412;28;20446;-82
2021/11/17 08:17:46;;;;;;;23.52;11.20;;;8.10;99.90;;;;;;5019402;28;20117;-84
2021/11/17 08:20:16;;;;;;;24.95;10.68;;;7.90;99.90;;;;;;5015640;28;20049;-82
2021/11/17 08:22:47;;;;;;;18.65;7.30;;;8.10;99.90;;;;;;5015505;28;20704;-84
2021/11/17 08:25:15;;;;;;;18.05;10.27;;;8.10;99.90;;;;;;5016813;28;20166;-85
2021/11/17 08:27:41;;;;;;;15.30;7.30;;;8.10;99.90;;;;;;5031088;28;20518;-85
2021/11/17 08:30:14;;;;;;;20.08;9.93;;;8.20;99.90;;;;;;5006936;28;20041;-83
2021/11/17 08:32:43;;;;;;;21.13;10.63;;;8.40;99.90;;;;;;5031725;28;20459;-84
2021/11/17 08:35:21;;;;;;;15.20;7.80;;;8.10;99.90;;;;;;5027063;28;20069;-83
2021/11/17 08:37:50;;;;;;;18.35;9.20;;;8.10;99.90;;;;;;4985208;28;20048;-83
2021/11/17 08:40:20;;;;;;;20.13;10.35;;;8.10;99.90;;;;;;5014110;28;20037;-80
2021/11/17 08:42:46;;;;;;;28.73;12.45;;;8.10;99.90;;;;;;5012967;28;20508;-78
2021/11/17 08:45:13;;;;;;;18.00;10.98;;;8.10;99.90;;;;;;5012403;28;20049;-79
2021/11/17 08:47:41;;;;;;;14.20;8.15;;;8.20;99.90;;;;;;5013100;28;20042;-80
2021/11/17 08:50:10;;;;;;;16.25;9.77;;;8.20;99.90;;;;;;5014299;28;20041;-81
2021/11/17 08:52:36;;;;;;;21.90;10.57;;;8.10;99.90;;;;;;5013642;28;20467;-80
2021/11/17 08:55:02;;;;;;;21.65;11.27;;;8.10;99.90;;;;;;4997718;28;20133;-78
2021/11/17 08:57:28;;;;;;;14.77;8.40;;;8.20;99.90;;;;;;5013031;28;20052;-78
2021/11/17 08:59:53;;;;;;;22.15;10.57;;;8.20;99.90;;;;;;4981733;28;20045;-76
2021/11/17 09:02:20;;;;;;;19.95;7.57;;;8.20;99.90;;;;;;5030038;28;20037;-78
2021/11/17 09:04:46;;;;;;;14.55;8.68;;;8.20;99.90;;;;;;5013784;28;20422;-81
2021/11/17 09:07:12;;;;;;;;;;;8.20;99.90;;;;;;5013576;28;20372;-78
2021/11/17 09:09:38;;;;;;;14.10;7.53;;;;;;;;;;5028680;28;19921;-79
2021/11/17 09:12:05;;;;;;;21.65;11.20;;;8.30;99.90;;;;;;5029708;28;20094;-78
2021/11/17 09:14:32;;;;;;;23.17;8.73;;;8.40;99.90;;;;;;5008876;28;20107;-81
2021/11/17 09:16:58;;;;;;;17.80;8.52;;;8.40;99.90;;;;;;5002082;28;20090;-78
2021/11/17 09:19:24;;;;;;;17.45;8.48;;;8.40;99.90;;;;;;5019435;28;20128;-78
2021/11/17 09:21:50;;;;;;;18.65;9.48;;;8.50;99.90;;;;;;4977740;28;20140;-80
2021/11/17 09:24:18;;;;;;;19.63;10.57;;;8.50;99.90;;;;;;5004424;28;20057;-80
2021/11/17 09:26:46;;;;;;;18.77;10.52;;;8.60;99.90;;;;;;4997305;28;20090;-78
2021/11/17 09:29:12;;;;;;;27.70;10.70;;;10.10;99.90;;;;;;5030083;28;20079;-81
2021/11/17 09:31:41;;;;;;;22.48;10.63;;;8.70;99.90;;;;;;5012802;28;20052;-81
2021/11/17 09:34:08;;;;;;;20.98;9.88;;;8.70;99.90;;;;;;5030281;28;20124;-76
2021/11/17 09:36:35;;;;;;;23.50;10.52;;;8.70;99.90;;;;;;5029119;28;20045;-79
2021/11/17 09:39:08;;;;;;;18.15;6.53;;;8.70;99.90;;;;;;5013610;28;20076;-79
2021/11/17 09:41:46;;;;;;;14.15;7.82;;;10.00;99.90;;;;;;5013531;28;20053;-79
2021/11/17 09:44:25;;;;;;;15.80;9.73;;;8.70;99.90;;;;;;5014001;28;20525;-78
2021/11/17 09:46:52;;;;;;;8.38;4.53;;;8.80;99.90;;;;;;5012968;28;20041;-80
2021/11/17 09:49:26;;;;;;;16.45;7.75;;;8.80;99.90;;;;;;5013557;28;20041;-79
2021/11/17 09:51:56;;;;;;;7.97;6.47;;;8.90;99.90;;;;;;5013724;28;20057;-81
2021/11/17 09:54:28;;;;;;;12.95;7.70;;;8.90;99.90;;;;;;5007177;28;20052;-78
2021/11/17 09:56:58;;;;;;;16.13;9.57;;;8.90;99.90;;;;;;5022376;28;20052;-78
2021/11/17 09:59:43;;;;;;;15.35;7.78;;;9.00;99.90;;;;;;5015601;28;20037;-80
2021/11/17 10:02:34;;;;;;;16.40;6.82;;;9.00;99.90;;;;;;5017612;28;20044;-81
2021/11/17 10:05:14;;;;;;;14.63;5.07;;;9.10;99.90;;;;;;5019954;28;20506;-80
2021/11/17 10:08:27;;;;;;;17.40;8.05;;;9.10;99.90;;;;;;5018212;28;20041;-78
2021/11/17 10:14:26;;;;;;;10.88;5.80;;;9.10;99.90;;;;;;5035633;28;20128;-83
2021/11/17 10:16:53;;;;;;;11.75;6.05;;;8.90;99.90;;;;;;5016349;28;20045;-81
2021/11/17 10:19:34;;;;;;;11.52;6.90;;;8.90;99.90;;;;;;5003455;28;20077;-79
2021/11/17 10:22:06;;;;;;;13.85;7.28;;;8.90;99.90;;;;;;5019632;28;20046;-81
2021/11/17 10:25:04;;;;;;;11.35;6.13;;;8.90;99.90;;;;;;5018541;28;20037;-79
2021/11/17 10:27:33;;;;;;;5.55;4.07;;;9.10;99.90;;;;;;5004336;28;20049;-80
2021/11/17 10:30:26;;;;;;;12.15;4.22;;;9.20;99.90;;;;;;5002337;28;20041;-80
2021/11/17 10:33:19;;;;;;;8.88;6.32;;;9.10;99.90;;;;;;5018173;28;20041;-80
2021/11/17 10:35:59;;;;;;;4.85;4.30;;;9.10;99.90;;;;;;5021086;28;20099;-78
2021/11/17 10:38:46;;;;;;;5.80;4.40;;;9.10;99.90;;;;;;4974006;28;20118;-78
2021/11/17 10:41:25;;;;;;;10.85;4.90;;;9.20;99.90;;;;;;4965878;28;20129;-78
2021/11/17 10:43:56;;;;;;;8.73;4.90;;;9.20;99.90;;;;;;4973238;28;20501;-78
2021/11/17 10:46:27;;;;;;;8.48;4.90;;;9.30;99.90;;;;;;4946769;28;20042;-81
2021/11/17 10:48:58;;;;;;;6.55;4.72;;;9.30;99.90;;;;;;4992835;28;20054;-77
2021/11/17 10:51:34;;;;;;;8.88;4.03;;;9.30;99.90;;;;;;4977497;28;20051;-79
2021/11/17 10:54:10;;;;;;;11.43;5.55;;;8.70;99.90;;;;;;4977329;28;20064;-78
2021/11/17 10:56:38;;;;;;;13.00;4.10;;;9.50;99.90;;;;;;4976292;28;20050;-79
2021/11/17 11:09:21;;;;;;;3.55;2.13;;;10.10;99.90;;;;;;5032611;28;20058;-82
2021/11/17 11:11:51;;;;;;;5.28;3.28;;;10.20;99.90;;;;;;4997939;28;20045;-79
2021/11/17 11:14:39;;;;;;;9.52;2.22;;;10.30;99.90;;;;;;4993399;28;20515;-78
2021/11/17 11:17:24;;;;;;;3.85;1.85;;;10.30;99.90;;;;;;5009192;28;20050;-78
2021/11/17 11:19:51;;;;;;;7.72;2.40;;;10.40;99.90;;;;;;4994703;28;20072;-78
2021/11/17 11:22:20;;;;;;;3.90;1.30;;;10.50;99.90;;;;;;5012135;28;20038;-80
2021/11/17 11:24:54;;;;;;;2.83;1.60;;;10.60;99.90;;;;;;4993866;28;20045;-82
2021/11/17 11:27:31;;;;;;;2.55;1.33;;;10.40;99.90;;;;;;5010541;28;20053;-81
2021/11/17 11:30:03;;;;;;;3.38;1.67;;;10.70;99.90;;;;;;4991865;28;20041;-80
2021/11/17 11:32:29;;;;;;;8.23;1.88;;;10.80;99.90;;;;;;5005849;28;20049;-78
2021/11/17 11:35:17;;;;;;;1.40;1.30;;;10.90;99.90;;;;;;5004655;28;20041;-76
2021/11/17 11:38:03;;;;;;;3.03;1.15;;;10.90;99.90;;;;;;5009625;28;20861;-84
2021/11/17 11:41:00;;;;;;;11.02;1.70;;;10.90;99.90;;;;;;4990697;28;20038;-80
2021/11/17 11:43:27;;;;;;;2.03;1.20;;;11.00;99.90;;;;;;4986894;28;20076;-79
2021/11/17 11:45:53;;;;;;;;;;;11.00;99.90;;;;;;4959034;28;20375;-78
2021/11/17 11:48:25;;;;;;;1.73;1.08;;;11.00;99.90;;;;;;5012836;28;19967;-79
2021/11/17 11:50:57;;;;;;;4.57;1.25;;;11.00;99.90;;;;;;5007140;28;20466;-79
2021/11/17 11:53:26;;;;;;;1.17;1.10;;;11.00;99.90;;;;;;4989679;28;20046;-77
2021/11/17 11:55:52;;;;;;;1.80;1.23;;;11.00;99.90;;;;;;5004177;28;20069;-78
2021/11/17 11:58:21;;;;;;;2.80;1.35;;;11.10;99.90;;;;;;4988736;28;20076;-78
2021/11/17 12:01:07;;;;;;;4.15;1.30;;;11.10;99.90;;;;;;4989408;28;20044;-78
2021/11/17 12:03:37;;;;;;;4.68;1.55;;;11.20;99.90;;;;;;4988555;28;20100;-79
2021/11/17 12:06:09;;;;;;;0.90;0.80;;;11.10;99.90;;;;;;5007009;28;20120;-77
2021/11/17 12:09:09;;;;;;;1.50;1.05;;;11.20;99.90;;;;;;5002328;28;20056;-79
2021/11/17 12:11:54;;;;;;;1.27;0.93;;;11.20;99.90;;;;;;5006871;28;20048;-78
2021/11/17 12:14:30;;;;;;;4.75;0.95;;;11.20;99.90;;;;;;5013207;28;20053;-80
2021/11/17 12:16:56;;;;;;;;;;;11.20;99.90;;;;;;5004574;28;20034;-79
2021/11/17 12:19:25;;;;;;;3.33;1.38;;;11.20;99.90;;;;;;4979078;28;20359;-81
2021/11/17 12:22:02;;;;;;;3.20;0.98;;;11.20;99.90;;;;;;5007605;28;20037;-79
2021/11/17 12:24:32;;;;;;;1.15;0.80;;;11.20;99.90;;;;;;5004861;28;20049;-79
2021/11/17 12:27:00;;;;;;;3.33;1.10;;;11.20;99.90;;;;;;5003545;28;20132;-82
2021/11/17 12:29:31;;;;;;;2.20;1.10;;;11.20;99.90;;;;;;5013803;28;20067;-78
2021/11/17 12:32:35;;;;;;;5.28;1.67;;;11.20;99.90;;;;;;5010458;28;20045;-78
2021/11/17 12:35:24;;;;;;;8.70;1.10;;;11.20;99.90;;;;;;5018301;28;20055;-82
2021/11/17 12:37:57;;;;;;;3.17;1.25;;;11.20;99.90;;;;;;5001810;28;20088;-78
2021/11/17 12:40:48;;;;;;;2.20;0.95;;;11.20;99.90;;;;;;5012332;28;20108;-80
2021/11/17 12:43:45;;;;;;;2.92;1.02;;;11.20;99.90;;;;;;5029729;28;20341;-77
2021/11/17 12:46:43;;;;;;;2.30;1.03;;;11.00;99.90;;;;;;5023072;28;20045;-78
2021/11/17 12:49:18;;;;;;;2.00;1.73;;;11.00;99.90;;;;;;5012230;28;20045;-79
2021/11/17 12:51:48;;;;;;;4.57;1.77;;;11.00;99.90;;;;;;5009645;28;20379;-78
2021/11/17 12:54:36;;;;;;;1.08;1.08;;;10.90;99.90;;;;;;5008901;28;20049;-79
2021/11/17 12:57:29;;;;;;;0.98;0.88;;;10.90;99.90;;;;;;5008276;28;20037;-80
2021/11/17 13:00:21;;;;;;;0.82;0.82;;;10.90;99.90;;;;;;5008859;28;20076;-77
2021/11/17 13:02:55;;;;;;;1.95;1.42;;;11.20;99.90;;;;;;5008995;28;20359;-76
2021/11/17 13:05:20;;;;;;;0.90;0.85;;;11.00;99.90;;;;;;5024543;28;20114;-79
2021/11/17 13:07:58;;;;;;;2.05;1.08;;;11.00;99.90;;;;;;5004063;28;20050;-78
2021/11/17 13:10:29;;;;;;;3.95;1.15;;;11.00;99.90;;;;;;5012922;28;20120;-78
2021/11/17 13:13:16;;;;;;;1.48;0.70;;;11.00;99.90;;;;;;5008079;28;20038;-78
2021/11/17 13:15:49;;;;;;;1.48;1.17;;;11.00;99.90;;;;;;5019746;28;20456;-80
2021/11/17 13:18:25;;;;;;;5.78;1.67;;;11.00;99.90;;;;;;5001444;28;20152;-80
2021/11/17 13:20:52;;;;;;;0.95;0.73;;;11.00;99.90;;;;;;5006931;28;20046;-79
2021/11/17 13:23:26;;;;;;;1.05;0.90;;;11.00;99.90;;;;;;5006693;28;20045;-80
2021/11/17 13:26:19;;;;;;;4.90;1.15;;;11.00;99.90;;;;;;5012285;28;20048;-81
2021/11/17 13:28:49;;;;;;;1.60;1.17;;;10.90;99.90;;;;;;4995158;28;20045;-77
2021/11/17 13:31:32;;;;;;;3.17;1.00;;;10.90;99.90;;;;;;5032373;28;20503;-78
2021/11/17 13:34:09;;;;;;;1.25;1.15;;;10.80;99.90;;;;;;5014599;28;20060;-80
2021/11/17 13:36:35;;;;;;;1.17;1.08;;;10.90;99.90;;;;;;5004941;28;20064;-78
2021/11/17 13:39:02;;;;;;;2.45;1.67;;;10.90;99.90;;;;;;5025607;28;20087;-78
2021/11/17 13:41:28;;;;;;;2.53;0.90;;;11.00;99.90;;;;;;5021695;28;20376;-77
2021/11/17 13:43:54;;;;;;;1.30;1.00;;;11.00;99.90;;;;;;5012046;28;20056;-77
2021/11/17 13:46:20;;;;;;;2.50;1.30;;;11.10;99.90;;;;;;5009412;28;20457;-82
2021/11/17 13:48:49;;;;;;;1.48;1.10;;;11.10;99.90;;;;;;5003443;28;20087;-80
2021/11/17 13:51:18;;;;;;;4.65;1.05;;;11.30;99.90;;;;;;4990635;28;20452;-80
2021/11/17 13:53:45;;;;;;;1.67;1.08;;;11.50;99.90;;;;;;5008777;28;20045;-80
2021/11/17 13:56:32;;;;;;;1.65;0.93;;;11.30;99.90;;;;;;5008510;28;20149;-80
2021/11/17 13:58:58;;;;;;;3.47;1.13;;;11.20;99.90;;;;;;5017529;28;20069;-80
2021/11/17 14:01:25;;;;;;;2.75;1.45;;;11.20;99.90;;;;;;4991459;28;20072;-78
2021/11/17 14:03:51;;;;;;;3.20;1.05;;;11.40;99.90;;;;;;5023895;28;20098;-80
2021/11/17 14:06:19;;;;;;;3.88;1.50;;;11.50;99.90;;;;;;5002536;28;20107;-79
2021/11/17 14:08:46;;;;;;;1.27;0.95;;;11.60;99.90;;;;;;5027570;28;20127;-79
2021/11/17 14:11:12;;;;;;;3.75;1.42;;;11.60;99.90;;;;;;5024008;28;20057;-79
2021/11/17 14:13:38;;;;;;;1.83;1.35;;;11.60;99.90;;;;;;5020912;28;20057;-79
2021/11/17 14:16:05;;;;;;;4.63;0.93;;;11.50;99.90;;;;;;4995536;28;20037;-78
2021/11/17 14:18:31;;;;;;;0.75;0.75;;;11.50;99.90;;;;;;4995407;28;20450;-80
2021/11/17 14:20:59;;;;;;;4.18;1.13;;;11.50;99.90;;;;;;5010838;28;20037;-79
2021/11/17 14:23:25;;;;;;;2.53;1.55;;;11.40;99.90;;;;;;5009764;28;20080;-78
2021/11/17 14:25:51;;;;;;;;;;;11.30;99.90;;;;;;5012312;28;20724;-77
2021/11/17 14:28:20;;;;;;;3.03;1.17;;;11.10;99.90;;;;;;5004469;28;19925;-78
2021/11/17 14:30:48;;;;;;;0.70;0.70;;;11.00;99.90;;;;;;5009448;28;20103;-79
2021/11/17 14:33:19;;;;;;;2.45;1.88;;;10.70;99.90;;;;;;5026421;28;20049;-79
2021/11/17 14:35:45;;;;;;;1.67;0.98;;;10.50;99.90;;;;;;5027575;28;20041;-79
2021/11/17 14:38:17;;;;;;;1.70;0.70;;;10.40;99.90;;;;;;4998881;28;20037;-79
2021/11/17 14:40:44;;;;;;;1.10;1.00;;;10.20;99.90;;;;;;5004234;28;20075;-79
2021/11/17 14:43:09;;;;;;;0.80;0.80;;;10.10;99.90;;;;;;5009007;28;20068;-79
2021/11/17 14:45:35;;;;;;;0.90;0.90;;;10.00;99.90;;;;;;4996694;28;20494;-78
2021/11/17 14:48:01;;;;;;;2.38;1.33;;;10.00;99.90;;;;;;5014692;28;20060;-79
2021/11/17 14:50:27;;;;;;;5.65;1.02;;;10.00;99.90;;;;;;5018802;28;20379;-79
2021/11/17 14:52:53;;;;;;;1.85;1.10;;;10.00;99.90;;;;;;5032541;28;20081;-77
2021/11/17 14:55:22;;;;;;;3.20;1.02;;;10.00;99.90;;;;;;5037349;28;20042;-81
2021/11/17 14:57:49;;;;;;;1.20;0.75;;;9.90;99.90;;;;;;5022612;28;20434;-78
2021/11/17 15:00:21;;;;;;;2.38;1.40;;;9.80;99.90;;;;;;5017842;28;20037;-79
2021/11/17 15:02:47;;;;;;;5.75;1.20;;;9.70;99.90;;;;;;5025645;28;20040;-79
2021/11/17 15:05:14;;;;;;;2.50;1.05;;;9.60;99.90;;;;;;4997677;28;20037;-79
2021/11/17 15:07:41;;;;;;;3.97;1.15;;;9.60;99.90;;;;;;5009966;28;20115;-80
2021/11/17 15:10:09;;;;;;;4.63;1.00;;;9.50;99.90;;;;;;5013794;28;20642;-78
2021/11/17 15:12:36;;;;;;;3.60;1.88;;;9.30;99.90;;;;;;5012130;28;20045;-78
2021/11/17 15:15:07;;;;;;;4.15;1.25;;;9.30;99.90;;;;;;5012328;28;20120;-79
2021/11/17 15:17:34;;;;;;;0.70;0.70;;;9.20;99.90;;;;;;5017811;28;20071;-80
2021/11/17 15:20:00;;;;;;;1.05;0.98;;;9.10;99.90;;;;;;5010241;28;20052;-80
2021/11/17 15:22:25;;;;;;;2.88;1.02;;;8.90;99.90;;;;;;5007755;28;20125;-79
2021/11/17 15:24:51;;;;;;;1.75;1.08;;;8.80;99.90;;;;;;5012575;28;20151;-78
2021/11/17 15:27:42;;;;;;;2.10;1.88;;;8.70;99.90;;;;;;5016886;28;20056;-79
2021/11/17 15:30:15;;;;;;;0.88;0.88;;;8.60;99.90;;;;;;5015006;28;20045;-78
2021/11/17 15:32:41;;;;;;;0.95;0.90;;;8.60;99.90;;;;;;5013413;28;20041;-80
2021/11/17 15:35:08;;;;;;;2.92;1.00;;;8.50;99.90;;;;;;5007733;28;20042;-79
2021/11/17 15:37:35;;;;;;;2.10;0.93;;;8.50;99.90;;;;;;4999217;28;20033;-77
2021/11/17 15:40:05;;;;;;;2.22;0.70;;;8.40;99.90;;;;;;5028352;28;21412;-78
2021/11/17 15:42:30;;;;;;;5.50;1.83;;;8.40;99.90;;;;;;5019022;28;20094;-77
2021/11/17 15:44:56;;;;;;;1.48;1.17;;;8.30;99.90;;;;;;4999460;28;20049;-81
2021/11/17 15:47:25;;;;;;;0.65;0.65;;;8.20;99.90;;;;;;5032423;28;20045;-78
2021/11/17 15:49:52;;;;;;;1.85;0.88;;;8.20;99.90;;;;;;4998357;28;20061;-79
2021/11/17 15:52:18;;;;;;;2.70;1.42;;;8.10;99.90;;;;;;5025623;28;20040;-80
2021/11/17 15:54:44;;;;;;;2.45;2.00;;;8.10;99.90;;;;;;5027575;28;20069;-78
2021/11/17 15:57:10;;;;;;;2.28;1.27;;;8.00;99.90;;;;;;5011409;28;20033;-79
2021/11/17 15:59:36;;;;;;;6.30;1.08;;;8.00;99.90;;;;;;5013090;28;20525;-77
2021/11/17 16:02:03;;;;;;;0.50;0.50;;;8.00;99.90;;;;;;4994863;28;20996;-77
2021/11/17 16:04:29;;;;;;;1.23;1.02;;;8.00;99.90;;;;;;5012329;28;20092;-82
2021/11/17 16:07:16;;;;;;;4.78;1.10;;;8.00;99.90;;;;;;4992395;28;20158;-81
2021/11/17 16:09:44;;;;;;;1.45;1.17;;;8.00;99.90;;;;;;5019366;28;20032;-81